createdAt,value
2022-09-02T00:01:17.334Z,53.07
2022-09-02T00:03:45.195Z,53.03
2022-09-02T00:06:14.595Z,53.13
2022-09-02T00:08:43.323Z,53.19
2022-09-02T00:11:19.769Z,53.60
2022-09-02T00:13:48.783Z,53.57
2022-09-02T00:16:17.372Z,53.85
2022-09-02T00:18:45.849Z,53.90
2022-09-02T00:21:16.339Z,54.04
2022-09-02T00:23:45.512Z,54.17
2022-09-02T00:26:14.473Z,53.97
2022-09-02T00:28:51.014Z,54.26
2022-09-02T00:31:23.764Z,54.62
2022-09-02T00:33:51.819Z,54.70
2022-09-02T00:36:20.813Z,54.60
2022-09-02T00:38:48.732Z,54.69
2022-09-02T00:41:16.670Z,54.91
2022-09-02T00:43:47.868Z,55.20
2022-09-02T00:46:19.805Z,55.22
2022-09-02T00:48:54.529Z,55.61
2022-09-02T00:51:24.335Z,55.63
2022-09-02T00:53:52.322Z,55.85
2022-09-02T00:56:23.613Z,56.11
2022-09-02T00:58:53.093Z,56.27
2022-09-02T01:01:22.513Z,56.24
2022-09-02T01:03:51.301Z,56.38
2022-09-02T01:06:24.366Z,56.62
2022-09-02T01:08:59.392Z,56.51
2022-09-02T01:11:31.911Z,56.62
2022-09-02T01:14:00.774Z,56.97
2022-09-02T01:16:34.731Z,57.38
2022-09-02T01:19:07.590Z,57.69
2022-09-02T01:21:35.697Z,57.66
2022-09-02T01:24:05.776Z,57.65
2022-09-02T01:26:33.601Z,57.67
2022-09-02T01:29:01.048Z,58.19
2022-09-02T01:31:28.600Z,58.27
2022-09-02T01:33:56.400Z,58.55
2022-09-02T01:36:23.864Z,58.00
2022-09-02T01:38:51.307Z,57.88
2022-09-02T01:41:20.179Z,57.89
2022-09-02T01:43:47.615Z,57.53
2022-09-02T01:46:15.665Z,57.50
2022-09-02T01:48:43.168Z,57.96
2022-09-02T01:51:17.710Z,57.53
2022-09-02T01:53:45.433Z,57.76
2022-09-02T01:56:13.414Z,58.10
2022-09-02T01:58:42.414Z,57.81
2022-09-02T02:01:11.167Z,57.87
2022-09-02T02:03:39.504Z,58.77
2022-09-02T02:06:11.143Z,58.54
2022-09-02T02:08:38.662Z,59.00
2022-09-02T02:11:06.517Z,59.69
2022-09-02T02:13:35.267Z,60.14
2022-09-02T02:16:04.757Z,60.50
2022-09-02T02:18:32.345Z,60.34
2022-09-02T02:20:59.836Z,60.52
2022-09-02T02:23:27.626Z,60.79
2022-09-02T02:25:55.115Z,60.91
2022-09-02T02:28:22.703Z,60.84
2022-09-02T02:30:50.443Z,61.52
2022-09-02T02:33:19.258Z,61.64
2022-09-02T02:35:47.087Z,61.21
2022-09-02T02:38:14.607Z,61.82
2022-09-02T02:40:43.238Z,61.82
2022-09-02T02:43:10.722Z,61.62
2022-09-02T02:45:38.920Z,61.52
2022-09-02T02:48:07.549Z,61.97
2022-09-02T02:50:36.350Z,62.21
2022-09-02T02:53:04.240Z,62.49
2022-09-02T02:55:31.804Z,62.86
2022-09-02T02:57:59.286Z,62.94
2022-09-02T03:00:29.498Z,62.74
2022-09-02T03:02:58.177Z,63.11
2022-09-02T03:05:27.172Z,63.10
2022-09-02T03:07:56.407Z,63.00
2022-09-02T03:10:25.157Z,63.16
2022-09-02T03:12:53.298Z,63.47
2022-09-02T03:15:21.841Z,63.44
2022-09-02T03:17:50.405Z,63.30
2022-09-02T03:20:19.244Z,62.74
2022-09-02T03:22:50.456Z,63.05
2022-09-02T03:25:21.568Z,62.96
2022-09-02T03:27:50.768Z,63.04
2022-09-02T03:30:21.238Z,63.20
2022-09-02T03:32:50.634Z,62.93
2022-09-02T03:35:21.316Z,63.34
2022-09-02T03:37:49.827Z,63.32
2022-09-02T03:40:22.024Z,63.29
2022-09-02T03:42:50.038Z,63.28
2022-09-02T03:45:18.334Z,63.08
2022-09-02T03:47:51.165Z,63.38
2022-09-02T03:50:20.115Z,63.26
2022-09-02T03:52:47.693Z,63.42
2022-09-02T03:55:16.011Z,63.65
2022-09-02T03:57:44.812Z,63.68
2022-09-02T04:00:15.820Z,63.51
2022-09-02T04:02:44.188Z,63.90
2022-09-02T04:05:18.076Z,63.84
2022-09-02T04:07:46.966Z,63.67
2022-09-02T04:10:15.266Z,63.79
2022-09-02T04:12:42.802Z,63.86
2022-09-02T04:15:13.076Z,64.26
2022-09-02T04:17:42.530Z,64.16
2022-09-02T04:20:13.315Z,64.59
2022-09-02T04:22:41.980Z,64.18
2022-09-02T04:25:10.813Z,64.25
2022-09-02T04:27:39.211Z,64.32
2022-09-02T04:30:09.137Z,64.47
2022-09-02T04:32:40.593Z,64.38
2022-09-02T04:35:08.910Z,64.41
2022-09-02T04:37:36.364Z,64.46
2022-09-02T04:40:04.499Z,64.40
2022-09-02T04:42:32.140Z,64.20
2022-09-02T04:44:59.590Z,63.87
2022-09-02T04:47:27.707Z,63.69
2022-09-02T04:49:56.517Z,64.17
2022-09-02T04:52:24.020Z,63.93
2022-09-02T04:54:51.910Z,64.08
2022-09-02T04:57:19.384Z,63.90
2022-09-02T04:59:46.850Z,63.78
2022-09-02T05:02:14.958Z,63.97
2022-09-02T05:04:42.574Z,63.90
2022-09-02T05:07:11.840Z,63.85
2022-09-02T05:09:40.514Z,63.65
2022-09-02T05:12:08.872Z,63.38
2022-09-02T05:14:36.415Z,63.11
2022-09-02T05:17:07.649Z,62.95
2022-09-02T05:19:35.695Z,63.07
2022-09-02T05:22:04.913Z,62.66
2022-09-02T05:24:33.905Z,61.99
2022-09-02T05:27:01.444Z,62.04
2022-09-02T05:29:28.948Z,62.02
2022-09-02T05:31:56.408Z,61.76
2022-09-02T05:34:24.338Z,62.21
2022-09-02T05:36:51.828Z,61.48
2022-09-02T05:39:19.350Z,61.35
2022-09-02T05:41:48.145Z,61.59
2022-09-02T05:44:15.589Z,61.60
2022-09-02T05:46:48.081Z,61.09
2022-09-02T05:49:18.175Z,60.91
2022-09-02T05:51:47.707Z,60.54
2022-09-02T05:54:17.838Z,60.45
2022-09-02T05:56:48.600Z,60.62
2022-09-02T05:59:18.121Z,60.10
2022-09-02T06:01:45.677Z,59.63
2022-09-02T06:04:13.220Z,59.75
2022-09-02T06:06:42.155Z,59.48
2022-09-02T06:09:11.998Z,59.57
2022-09-02T06:11:44.550Z,59.28
2022-09-02T06:14:13.853Z,58.92
2022-09-02T06:16:43.431Z,58.65
2022-09-02T06:19:12.314Z,58.84
2022-09-02T06:21:42.124Z,58.52
2022-09-02T06:24:12.167Z,58.81
2022-09-02T06:26:41.066Z,58.43
2022-09-02T06:29:10.530Z,58.05
2022-09-02T06:31:41.047Z,57.99
2022-09-02T06:34:14.630Z,58.00
2022-09-02T06:36:43.318Z,57.53
2022-09-02T06:39:12.974Z,57.71
2022-09-02T06:41:42.196Z,57.07
2022-09-02T06:44:11.574Z,57.28
2022-09-02T06:46:44.410Z,57.34
2022-09-02T06:49:13.523Z,56.85
2022-09-02T06:51:44.370Z,56.66
2022-09-02T06:54:15.653Z,55.88
2022-09-02T06:56:49.109Z,55.02
2022-09-02T06:59:17.123Z,54.66
2022-09-02T07:01:45.722Z,54.39
2022-09-02T07:04:32.879Z,53.35
2022-09-02T07:07:00.334Z,52.57
2022-09-02T07:09:30.984Z,52.03
2022-09-02T07:12:04.367Z,52.09
2022-09-02T07:14:36.746Z,51.19
2022-09-02T07:17:04.333Z,50.71
2022-09-02T07:19:33.659Z,50.79
2022-09-02T07:22:01.146Z,50.49
2022-09-02T07:24:28.668Z,51.04
2022-09-02T07:26:56.167Z,49.86
2022-09-02T07:29:23.941Z,49.62
2022-09-02T07:31:51.471Z,48.98
2022-09-02T07:34:20.029Z,49.08
2022-09-02T07:36:49.004Z,48.41
2022-09-02T07:39:17.755Z,48.51
2022-09-02T07:41:48.057Z,49.07
2022-09-02T07:44:17.184Z,48.96
2022-09-02T07:46:46.489Z,48.40
2022-09-02T07:49:15.865Z,48.15
2022-09-02T07:51:46.417Z,47.61
2022-09-02T07:54:15.164Z,47.03
2022-09-02T07:56:43.134Z,47.49
2022-09-02T07:59:11.327Z,46.40
2022-09-02T08:01:39.117Z,46.67
2022-09-02T08:04:07.091Z,46.51
2022-09-02T08:06:35.406Z,46.33
2022-09-02T08:09:03.971Z,46.48
2022-09-02T08:11:35.230Z,46.56
2022-09-02T08:14:03.048Z,46.62
2022-09-02T08:16:30.587Z,46.03
2022-09-02T08:18:58.508Z,45.44
2022-09-02T08:21:26.551Z,45.01
2022-09-02T08:23:53.997Z,44.91
2022-09-02T08:26:21.440Z,44.25
2022-09-02T08:28:50.284Z,44.57
2022-09-02T08:31:18.547Z,43.86
2022-09-02T08:33:46.026Z,43.63
2022-09-02T08:36:15.104Z,44.11
2022-09-02T08:38:43.538Z,44.17
2022-09-02T08:41:20.939Z,43.70
2022-09-02T08:43:52.130Z,43.15
2022-09-02T08:46:25.707Z,42.64
2022-09-02T08:48:57.322Z,43.21
2022-09-02T08:51:37.302Z,43.35
2022-09-02T08:54:08.799Z,42.42
2022-09-02T08:56:36.280Z,41.90
2022-09-02T08:59:06.995Z,42.16
2022-09-02T09:01:46.290Z,42.15
2022-09-02T09:04:21.515Z,41.15
2022-09-02T09:07:02.222Z,41.82
2022-09-02T09:09:38.724Z,41.69
2022-09-02T09:12:14.311Z,42.28
2022-09-02T09:14:49.696Z,40.96
2022-09-02T09:17:27.237Z,40.49
2022-09-02T09:19:58.447Z,40.67
2022-09-02T09:22:30.774Z,40.18
2022-09-02T09:24:58.567Z,40.34
2022-09-02T09:27:27.105Z,39.14
2022-09-02T09:29:55.995Z,39.67
2022-09-02T09:32:28.842Z,39.97
2022-09-02T09:35:03.012Z,40.23
2022-09-02T09:37:36.063Z,39.98
2022-09-02T09:40:26.454Z,39.31
2022-09-02T09:42:57.049Z,38.34
2022-09-02T09:45:33.027Z,38.55
2022-09-02T09:48:16.103Z,38.94
2022-09-02T09:50:44.374Z,38.68
2022-09-02T09:53:16.683Z,38.08
2022-09-02T09:55:55.224Z,37.60
2022-09-02T09:58:24.544Z,36.89
2022-09-02T10:00:57.165Z,37.29
2022-09-02T10:03:27.490Z,36.82
2022-09-02T10:06:19.904Z,36.73
2022-09-02T10:08:53.271Z,36.24
2022-09-02T10:11:23.816Z,35.90
2022-09-02T10:13:51.548Z,36.29
2022-09-02T10:16:45.317Z,35.12
2022-09-02T10:19:26.448Z,35.30
2022-09-02T10:22:09.209Z,35.01
2022-09-02T10:24:56.093Z,34.11
2022-09-02T10:27:30.423Z,34.38
2022-09-02T10:30:04.292Z,34.55
2022-09-02T10:32:48.604Z,35.42
2022-09-02T10:35:22.202Z,34.52
2022-09-02T10:38:10.679Z,34.98
2022-09-02T10:40:49.599Z,34.38
2022-09-02T10:43:32.563Z,34.38
2022-09-02T10:46:02.052Z,34.47
2022-09-02T10:48:44.588Z,33.60
2022-09-02T10:51:19.431Z,34.48
2022-09-02T10:54:01.709Z,34.70
2022-09-02T10:56:34.864Z,34.53
2022-09-02T10:59:09.069Z,34.08
2022-09-02T11:01:49.405Z,34.22
2022-09-02T11:04:26.181Z,34.30
2022-09-02T11:07:04.554Z,34.85
2022-09-02T11:09:37.348Z,34.93
2022-09-02T11:12:10.907Z,33.76
2022-09-02T11:14:48.742Z,34.09
2022-09-02T11:17:22.258Z,34.07
2022-09-02T11:19:56.389Z,34.32
2022-09-02T11:22:29.552Z,33.58
2022-09-02T11:25:01.624Z,33.67
2022-09-02T11:27:42.840Z,33.33
2022-09-02T11:30:15.895Z,33.34
2022-09-02T11:32:50.322Z,33.72
2022-09-02T11:35:24.479Z,34.09
2022-09-02T11:37:56.306Z,33.06
2022-09-02T11:40:34.742Z,33.73
2022-09-02T11:43:21.827Z,32.99
2022-09-02T11:46:08.137Z,32.30
2022-09-02T11:48:58.455Z,32.71
2022-09-02T11:52:01.857Z,31.95
2022-09-02T11:54:36.164Z,32.44
2022-09-02T11:57:06.877Z,32.38
2022-09-02T12:00:03.762Z,33.07
2022-09-02T12:02:39.945Z,32.83
2022-09-02T12:05:48.020Z,32.78
2022-09-02T12:11:45.237Z,31.90
2022-09-02T12:15:06.209Z,31.08
2022-09-02T12:18:06.948Z,31.03
2022-09-02T12:21:15.947Z,31.47
2022-09-02T12:24:21.370Z,31.93
2022-09-02T12:27:18.775Z,32.27
2022-09-02T12:29:46.316Z,31.88
2022-09-02T12:32:56.074Z,31.66
2022-09-02T12:35:46.674Z,31.38
2022-09-02T12:38:32.515Z,31.63
2022-09-02T12:41:13.296Z,31.11
2022-09-02T12:43:51.602Z,31.70
2022-09-02T12:46:27.730Z,32.42
2022-09-02T12:49:02.451Z,31.57
2022-09-02T12:51:57.096Z,31.15
2022-09-02T12:54:32.894Z,31.05
2022-09-02T12:57:00.523Z,30.92
2022-09-02T12:59:31.119Z,31.29
2022-09-02T13:02:23.809Z,31.34
2022-09-02T13:05:08.271Z,32.01
2022-09-02T13:08:09.387Z,30.86
2022-09-02T13:10:52.413Z,31.17
2022-09-02T13:13:55.691Z,31.05
2022-09-02T13:16:39.066Z,31.60
2022-09-02T13:19:33.405Z,30.31
2022-09-02T13:22:35.072Z,29.94
2022-09-02T13:25:41.465Z,30.65
2022-09-02T13:28:31.187Z,30.53
2022-09-02T13:31:10.275Z,30.78
2022-09-02T13:33:42.356Z,31.21
2022-09-02T13:36:10.711Z,31.68
2022-09-02T13:38:39.550Z,30.39
2022-09-02T13:41:07.026Z,29.97
2022-09-02T13:43:34.449Z,29.54
2022-09-02T13:46:03.150Z,29.71
2022-09-02T13:48:33.532Z,30.26
2022-09-02T13:51:10.153Z,30.02
2022-09-02T13:53:58.986Z,30.25
2022-09-02T13:56:31.554Z,29.15
2022-09-02T13:58:59.029Z,30.29
2022-09-02T14:01:30.255Z,28.99
2022-09-02T14:04:00.665Z,28.63
2022-09-02T14:06:31.498Z,28.61
2022-09-02T14:09:02.946Z,27.16
2022-09-02T14:11:39.020Z,26.99
2022-09-02T14:14:06.904Z,29.55
2022-09-02T14:16:36.383Z,28.86
2022-09-02T14:19:05.520Z,27.31
2022-09-02T14:21:33.515Z,27.06
2022-09-02T14:24:03.214Z,27.36
2022-09-02T14:26:36.188Z,28.27
2022-09-02T14:29:06.419Z,29.53
2022-09-02T14:31:34.360Z,29.70
2022-09-02T14:34:04.363Z,29.17
2022-09-02T14:36:35.432Z,29.34
2022-09-02T14:39:14.557Z,28.39
2022-09-02T14:41:48.212Z,26.87
2022-09-02T14:44:22.462Z,26.66
2022-09-02T14:46:52.204Z,26.80
2022-09-02T14:49:25.500Z,26.96
2022-09-02T14:51:55.156Z,26.88
2022-09-02T14:54:39.243Z,25.23
2022-09-02T14:57:20.106Z,25.92
2022-09-02T14:59:47.643Z,26.60
2022-09-02T15:02:23.760Z,26.71
2022-09-02T15:04:51.518Z,26.87
2022-09-02T15:07:19.058Z,27.39
2022-09-02T15:09:51.256Z,28.13
2022-09-02T15:12:20.574Z,27.97
2022-09-02T15:14:48.023Z,27.84
2022-09-02T15:17:18.088Z,28.50
2022-09-02T15:19:45.527Z,27.99
2022-09-02T15:22:13.404Z,28.50
2022-09-02T15:24:43.301Z,28.58
2022-09-02T15:27:12.709Z,28.14
2022-09-02T15:29:40.416Z,27.36
2022-09-02T15:32:07.939Z,27.04
2022-09-02T15:34:35.439Z,27.86
2022-09-02T15:37:03.571Z,26.65
2022-09-02T15:39:31.072Z,26.90
2022-09-02T15:41:58.786Z,26.43
2022-09-02T15:44:28.356Z,25.73
2022-09-02T15:46:56.472Z,27.51
2022-09-02T15:49:24.674Z,27.74
2022-09-02T15:51:55.104Z,28.80
2022-09-02T15:54:24.552Z,26.76
2022-09-02T15:56:56.431Z,27.81
2022-09-02T15:59:23.868Z,27.26
2022-09-02T16:01:55.909Z,28.02
2022-09-02T16:04:23.920Z,27.15
2022-09-02T16:06:53.185Z,27.38
2022-09-02T16:09:21.039Z,28.09
2022-09-02T16:11:50.285Z,30.14
2022-09-02T16:14:20.530Z,31.19
2022-09-02T16:16:49.237Z,30.30
2022-09-02T16:19:19.970Z,28.53
2022-09-02T16:21:47.616Z,28.53
2022-09-02T16:24:15.086Z,27.83
2022-09-02T16:26:43.015Z,26.96
2022-09-02T16:29:14.038Z,27.40
2022-09-02T16:31:43.451Z,27.83
2022-09-02T16:34:12.523Z,27.66
2022-09-02T16:36:43.453Z,27.75
2022-09-02T16:39:12.230Z,27.34
2022-09-02T16:41:43.615Z,27.32
2022-09-02T16:44:13.054Z,27.85
2022-09-02T16:46:41.534Z,29.15
2022-09-02T16:49:09.556Z,28.36
2022-09-02T16:51:38.246Z,27.92
2022-09-02T16:54:08.797Z,28.36
2022-09-02T16:56:45.090Z,28.39
2022-09-02T16:59:13.640Z,28.78
2022-09-02T17:01:41.573Z,29.03
2022-09-02T17:04:09.318Z,29.97
2022-09-02T17:06:41.466Z,30.66
2022-09-02T17:09:11.669Z,30.40
2022-09-02T17:11:41.195Z,30.65
2022-09-02T17:14:10.918Z,31.65
2022-09-02T17:16:40.423Z,30.03
2022-09-02T17:19:08.625Z,31.79
2022-09-02T17:21:37.565Z,32.15
2022-09-02T17:24:06.740Z,31.74
2022-09-02T17:26:39.307Z,32.09
2022-09-02T17:29:17.215Z,33.20
2022-09-02T17:31:53.698Z,32.87
2022-09-02T17:34:21.449Z,33.05
2022-09-02T17:36:48.990Z,33.36
2022-09-02T17:39:19.859Z,33.59
2022-09-02T17:42:00.125Z,33.84
2022-09-02T17:44:34.769Z,34.10
2022-09-02T17:47:04.488Z,34.27
2022-09-02T17:49:32.010Z,34.68
2022-09-02T17:51:59.958Z,34.97
2022-09-02T17:54:28.536Z,35.18
2022-09-02T17:57:10.631Z,35.64
2022-09-02T17:59:53.170Z,35.96
2022-09-02T18:02:48.092Z,36.32
2022-09-02T18:05:23.279Z,36.53
2022-09-02T18:08:01.568Z,36.80
2022-09-02T18:10:34.363Z,36.87
2022-09-02T18:13:06.697Z,37.34
2022-09-02T18:15:42.132Z,37.93
2022-09-02T18:18:12.235Z,37.83
2022-09-02T18:20:42.973Z,37.94
2022-09-02T18:23:47.215Z,38.31
2022-09-02T18:26:24.248Z,38.68
2022-09-02T18:29:02.655Z,38.71
2022-09-02T18:31:42.028Z,38.84
2022-09-02T18:34:21.424Z,39.07
2022-09-02T18:37:05.599Z,39.17
2022-09-02T18:40:03.306Z,39.67
2022-09-02T18:42:40.368Z,39.74
2022-09-02T18:45:21.491Z,39.90
2022-09-02T18:47:54.679Z,40.07
2022-09-02T18:50:49.118Z,40.35
2022-09-02T18:53:22.089Z,40.62
2022-09-02T18:55:51.061Z,41.01
2022-09-02T18:58:33.798Z,41.34
2022-09-02T19:01:06.351Z,41.50
2022-09-02T19:03:35.426Z,42.01
2022-09-02T19:06:05.962Z,42.24
2022-09-02T19:08:33.931Z,42.33
2022-09-02T19:11:04.243Z,42.45
2022-09-02T19:13:42.316Z,42.51
2022-09-02T19:16:11.530Z,42.47
2022-09-02T19:18:39.033Z,42.84
2022-09-02T19:21:06.902Z,43.01
2022-09-02T19:23:37.190Z,43.05
2022-09-02T19:26:04.699Z,43.34
2022-09-02T19:28:32.348Z,43.16
2022-09-02T19:31:03.022Z,43.34
2022-09-02T19:33:34.752Z,43.41
2022-09-02T19:36:02.280Z,43.40
2022-09-02T19:38:29.878Z,43.40
2022-09-02T19:40:57.332Z,43.71
2022-09-02T19:43:24.780Z,43.65
2022-09-02T19:45:52.282Z,43.45
2022-09-02T19:48:20.354Z,43.82
2022-09-02T19:50:49.477Z,43.91
2022-09-02T19:53:21.812Z,44.10
2022-09-02T19:55:50.961Z,44.24
2022-09-02T19:58:18.793Z,44.19
2022-09-02T20:00:47.133Z,44.23
2022-09-02T20:03:15.005Z,44.34
2022-09-02T20:05:42.895Z,44.41
2022-09-02T20:08:11.751Z,44.46
2022-09-02T20:10:40.339Z,44.62
2022-09-02T20:13:12.112Z,44.45
2022-09-02T20:15:40.024Z,44.69
2022-09-02T20:18:11.520Z,44.77
2022-09-02T20:20:42.945Z,44.59
2022-09-02T20:23:16.969Z,44.85
2022-09-02T20:26:01.936Z,45.45
2022-09-02T20:28:35.730Z,45.71
2022-09-02T20:31:14.786Z,45.85
2022-09-02T20:33:53.880Z,46.29
2022-09-02T20:36:27.593Z,46.53
2022-09-02T20:39:18.965Z,46.60
2022-09-02T20:41:56.759Z,46.90
2022-09-02T20:44:43.407Z,46.70
2022-09-02T20:47:30.892Z,46.48
2022-09-02T20:50:07.952Z,46.47
2022-09-02T20:52:45.688Z,46.99
2022-09-02T20:55:20.772Z,47.19
2022-09-02T20:58:14.230Z,47.80
2022-09-02T21:00:50.300Z,47.92
2022-09-02T21:03:20.943Z,48.33
2022-09-02T21:05:54.943Z,47.86
2022-09-02T21:08:30.904Z,47.39
2022-09-02T21:11:01.223Z,47.23
2022-09-02T21:13:37.503Z,47.28
2022-09-02T21:16:09.943Z,46.84
2022-09-02T21:18:43.675Z,47.27
2022-09-02T21:21:21.843Z,47.63
2022-09-02T21:23:53.858Z,47.89
2022-09-02T21:26:34.449Z,47.62
2022-09-02T21:29:07.162Z,47.76
2022-09-02T21:31:39.583Z,47.78
2022-09-02T21:34:13.130Z,47.97
2022-09-02T21:36:40.612Z,47.97
2022-09-02T21:39:14.862Z,47.82
2022-09-02T21:41:50.492Z,47.52
2022-09-02T21:44:23.960Z,47.45
2022-09-02T21:47:01.430Z,46.67
2022-09-02T21:49:58.078Z,46.71
2022-09-02T21:52:36.518Z,46.87
2022-09-02T21:55:11.711Z,46.61
2022-09-02T21:57:56.634Z,46.60
2022-09-02T22:00:24.727Z,46.72
2022-09-02T22:02:58.778Z,46.41
2022-09-02T22:05:44.791Z,46.34
2022-09-02T22:08:21.420Z,46.11
2022-09-02T22:11:00.307Z,46.40
2022-09-02T22:13:31.544Z,46.32
2022-09-02T22:16:13.040Z,46.27
2022-09-02T22:18:49.556Z,45.82
2022-09-02T22:21:23.349Z,45.72
2022-09-02T22:23:54.276Z,44.98
2022-09-02T22:26:32.767Z,45.03
2022-09-02T22:29:04.157Z,45.08
2022-09-02T22:31:35.891Z,45.69
2022-09-02T22:34:06.479Z,45.92
2022-09-02T22:36:48.803Z,46.40
2022-09-02T22:39:17.174Z,46.24
2022-09-02T22:41:56.456Z,46.66
2022-09-02T22:44:48.431Z,46.77
2022-09-02T22:47:34.821Z,46.81
2022-09-02T22:50:22.023Z,47.13
2022-09-02T22:52:55.520Z,47.25
2022-09-02T22:55:32.360Z,47.05
2022-09-02T22:58:10.899Z,47.30
2022-09-02T23:00:47.499Z,47.73
2022-09-02T23:03:19.686Z,48.44
2022-09-02T23:06:01.037Z,48.39
2022-09-02T23:08:28.552Z,48.74
2022-09-02T23:11:00.794Z,48.90
2022-09-02T23:13:42.974Z,49.13
2022-09-02T23:16:20.215Z,48.87
2022-09-02T23:19:01.140Z,48.97
2022-09-02T23:21:37.127Z,49.20
2022-09-02T23:24:13.231Z,49.64
2022-09-02T23:26:46.112Z,50.10
2022-09-02T23:29:18.382Z,50.33
2022-09-02T23:32:20.745Z,50.96
2022-09-02T23:35:04.032Z,50.94
2022-09-02T23:37:41.887Z,50.80
2022-09-02T23:40:17.872Z,51.27
2022-09-02T23:42:47.846Z,51.40
2022-09-02T23:45:22.403Z,51.50
2022-09-02T23:48:05.518Z,51.46
2022-09-02T23:50:45.671Z,52.30
2022-09-02T23:53:21.731Z,52.22
2022-09-02T23:55:58.412Z,52.34
2022-09-02T23:58:43.298Z,52.60
